JJA115 RKSS-RKPC
Flight info
| Callsign | JJA115 |
|---|---|
| Flight time | 0h 48m |
| Altitude | 32000 |
| Route | BULTI2T BULTI Y711 DOTOL DOTOL1M |
| Aircraft | B738/M-SDE2E3FGHIRWXY/LB1 |
Departure
| Time | 2026-05-08 02:56 |
|---|---|
| Airport | Gimpo International Airport (RKSS) |
Arrival
| Time | 2026-05-08 03:45 |
|---|---|
| Airport | Jeju International Airport (RKPC) |
| Time | Latitude | Longitude | Altitude | Speed | Heading |
|---|---|---|---|---|---|
| 2026-05-08 02:13 | 37.55938 | 126.80107 | 66 ft | 0 kts | 45° |
| 2026-05-08 02:18 | 37.55937 | 126.80107 | 66 ft | 0 kts | 45° |
| 2026-05-08 02:47 | 37.55930 | 126.80098 | 60 ft | 4 kts | 45° |
| 2026-05-08 02:47 | 37.55911 | 126.80074 | 60 ft | 4 kts | 45° |
| 2026-05-08 02:48 | 37.55892 | 126.80050 | 59 ft | 4 kts | 47° |
| 2026-05-08 02:48 | 37.55876 | 126.80024 | 62 ft | 4 kts | 60° |
| 2026-05-08 02:48 | 37.55869 | 126.79997 | 60 ft | 4 kts | 117° |
| 2026-05-08 02:48 | 37.55872 | 126.79991 | 63 ft | 2 kts | 135° |
| 2026-05-08 02:50 | 37.55871 | 126.79992 | 63 ft | 1 kts | 135° |
| 2026-05-08 02:50 | 37.55860 | 126.80006 | 66 ft | 4 kts | 135° |
| 2026-05-08 02:51 | 37.55828 | 126.80046 | 65 ft | 9 kts | 135° |
| 2026-05-08 02:51 | 37.55771 | 126.80117 | 63 ft | 14 kts | 135° |
| 2026-05-08 02:51 | 37.55695 | 126.80214 | 62 ft | 17 kts | 133° |
| 2026-05-08 02:51 | 37.55614 | 126.80311 | 62 ft | 14 kts | 145° |
| 2026-05-08 02:52 | 37.55529 | 126.80374 | 59 ft | 15 kts | 138° |
| 2026-05-08 02:52 | 37.55454 | 126.80467 | 60 ft | 16 kts | 135° |
| 2026-05-08 02:52 | 37.55370 | 126.80574 | 62 ft | 18 kts | 135° |
| 2026-05-08 02:52 | 37.55295 | 126.80666 | 63 ft | 9 kts | 146° |
| 2026-05-08 02:53 | 37.55269 | 126.80670 | 62 ft | 2 kts | 198° |
| 2026-05-08 02:53 | 37.55250 | 126.80654 | 61 ft | 5 kts | 223° |
| 2026-05-08 02:53 | 37.55213 | 126.80607 | 59 ft | 10 kts | 225° |
| 2026-05-08 02:53 | 37.55151 | 126.80529 | 60 ft | 15 kts | 225° |
| 2026-05-08 02:54 | 37.55062 | 126.80417 | 58 ft | 21 kts | 225° |
| 2026-05-08 02:54 | 37.54960 | 126.80289 | 58 ft | 17 kts | 224° |
| 2026-05-08 02:54 | 37.54883 | 126.80191 | 63 ft | 12 kts | 225° |
| 2026-05-08 02:54 | 37.54826 | 126.80119 | 58 ft | 7 kts | 225° |
| 2026-05-08 02:55 | 37.54821 | 126.80082 | 57 ft | 3 kts | 296° |
| 2026-05-08 02:55 | 37.54839 | 126.80058 | 57 ft | 0 kts | 315° |
| 2026-05-08 02:55 | 37.54844 | 126.80051 | 56 ft | 5 kts | 315° |
| 2026-05-08 02:56 | 37.54914 | 126.79964 | 55 ft | 37 kts | 315° |
| 2026-05-08 02:56 | 37.55277 | 126.79505 | 53 ft | 108 kts | 315° |
| 2026-05-08 02:56 | 37.55956 | 126.78658 | 104 ft | 161 kts | 307° |
| 2026-05-08 02:56 | 37.56789 | 126.77622 | 784 ft | 165 kts | 313° |
| 2026-05-08 02:57 | 37.57564 | 126.76654 | 1977 ft | 156 kts | 313° |
| 2026-05-08 02:57 | 37.58391 | 126.75605 | 2526 ft | 183 kts | 315° |
| 2026-05-08 02:57 | 37.59360 | 126.74380 | 2882 ft | 208 kts | 313° |
| 2026-05-08 02:57 | 37.60407 | 126.73059 | 3528 ft | 221 kts | 314° |
| 2026-05-08 02:58 | 37.61374 | 126.71457 | 4100 ft | 236 kts | 295° |
| 2026-05-08 02:58 | 37.61810 | 126.69484 | 5203 ft | 237 kts | 278° |
| 2026-05-08 02:58 | 37.61593 | 126.67385 | 6095 ft | 251 kts | 257° |
| 2026-05-08 02:58 | 37.61023 | 126.66013 | 6728 ft | 261 kts | 242° |
| 2026-05-08 02:59 | 37.59836 | 126.64238 | 7620 ft | 268 kts | 236° |
| 2026-05-08 02:59 | 37.58544 | 126.62514 | 8452 ft | 272 kts | 235° |
| 2026-05-08 02:59 | 37.57227 | 126.60775 | 9309 ft | 276 kts | 233° |
| 2026-05-08 02:59 | 37.55572 | 126.59416 | 10157 ft | 297 kts | 208° |
| 2026-05-08 03:00 | 37.53471 | 126.58832 | 10586 ft | 325 kts | 194° |
| 2026-05-08 03:00 | 37.51123 | 126.58533 | 10780 ft | 351 kts | 191° |
| 2026-05-08 03:00 | 37.48633 | 126.58276 | 11176 ft | 366 kts | 191° |
| 2026-05-08 03:00 | 37.46076 | 126.57985 | 11856 ft | 371 kts | 192° |
| 2026-05-08 03:01 | 37.43500 | 126.57657 | 12611 ft | 374 kts | 193° |
| 2026-05-08 03:01 | 37.40895 | 126.57339 | 13349 ft | 381 kts | 189° |
| 2026-05-08 03:01 | 37.38201 | 126.57719 | 14014 ft | 398 kts | 172° |
| 2026-05-08 03:01 | 37.35499 | 126.58542 | 14682 ft | 402 kts | 172° |
| 2026-05-08 03:02 | 37.32762 | 126.59340 | 15329 ft | 405 kts | 173° |
| 2026-05-08 03:02 | 37.30007 | 126.60177 | 15969 ft | 411 kts | 172° |
| 2026-05-08 03:02 | 37.27225 | 126.61116 | 16608 ft | 415 kts | 171° |
| 2026-05-08 03:02 | 37.24430 | 126.62065 | 17259 ft | 418 kts | 172° |
| 2026-05-08 03:03 | 37.21604 | 126.63009 | 17901 ft | 422 kts | 172° |
| 2026-05-08 03:03 | 37.18751 | 126.63951 | 18487 ft | 426 kts | 173° |
| 2026-05-08 03:03 | 37.15876 | 126.64895 | 19071 ft | 428 kts | 173° |
| 2026-05-08 03:03 | 37.12993 | 126.65841 | 19677 ft | 429 kts | 173° |
| 2026-05-08 03:04 | 37.10101 | 126.66791 | 20234 ft | 431 kts | 173° |
| 2026-05-08 03:04 | 37.08171 | 126.67425 | 20588 ft | 433 kts | 173° |
| 2026-05-08 03:04 | 37.05245 | 126.68385 | 21131 ft | 436 kts | 173° |
| 2026-05-08 03:04 | 37.01340 | 126.69665 | 21822 ft | 440 kts | 174° |
| 2026-05-08 03:05 | 36.98362 | 126.70641 | 22033 ft | 444 kts | 174° |
| 2026-05-08 03:05 | 36.95388 | 126.71621 | 22020 ft | 441 kts | 174° |
| 2026-05-08 03:05 | 36.93381 | 126.72282 | 22026 ft | 441 kts | 174° |
| 2026-05-08 03:05 | 36.89450 | 126.73613 | 22024 ft | 445 kts | 170° |
| 2026-05-08 03:06 | 36.87470 | 126.74494 | 22021 ft | 449 kts | 166° |
| 2026-05-08 03:06 | 36.83646 | 126.76523 | 22031 ft | 452 kts | 163° |
| 2026-05-08 03:06 | 36.81712 | 126.77596 | 22036 ft | 452 kts | 164° |
| 2026-05-08 03:06 | 36.78826 | 126.79156 | 22025 ft | 451 kts | 165° |
| 2026-05-08 03:07 | 36.75975 | 126.80638 | 22025 ft | 450 kts | 166° |
| 2026-05-08 03:07 | 36.73063 | 126.82083 | 22020 ft | 446 kts | 170° |
| 2026-05-08 03:07 | 36.70094 | 126.82753 | 22034 ft | 425 kts | 188° |
| 2026-05-08 03:07 | 36.67146 | 126.82806 | 22034 ft | 423 kts | 190° |
| 2026-05-08 03:08 | 36.64196 | 126.82836 | 22030 ft | 424 kts | 189° |
| 2026-05-08 03:08 | 36.61242 | 126.82898 | 22026 ft | 425 kts | 189° |
| 2026-05-08 03:08 | 36.58279 | 126.82994 | 22035 ft | 426 kts | 189° |
| 2026-05-08 03:08 | 36.55310 | 126.83103 | 22028 ft | 427 kts | 188° |
| 2026-05-08 03:09 | 36.52343 | 126.83225 | 22024 ft | 426 kts | 188° |
| 2026-05-08 03:09 | 36.49378 | 126.83351 | 22037 ft | 426 kts | 188° |
| 2026-05-08 03:09 | 36.46406 | 126.83477 | 22032 ft | 426 kts | 188° |
| 2026-05-08 03:09 | 36.43442 | 126.83601 | 22039 ft | 427 kts | 189° |
| 2026-05-08 03:10 | 36.40477 | 126.83723 | 22029 ft | 427 kts | 189° |
| 2026-05-08 03:10 | 36.37522 | 126.83765 | 22044 ft | 420 kts | 193° |
| 2026-05-08 03:10 | 36.34627 | 126.83506 | 22044 ft | 416 kts | 197° |
| 2026-05-08 03:10 | 36.31753 | 126.83149 | 22044 ft | 415 kts | 197° |
| 2026-05-08 03:11 | 36.28917 | 126.82782 | 22051 ft | 415 kts | 197° |
| 2026-05-08 03:11 | 36.26040 | 126.82425 | 22049 ft | 416 kts | 197° |
| 2026-05-08 03:11 | 36.23158 | 126.82089 | 22062 ft | 416 kts | 197° |
| 2026-05-08 03:11 | 36.20273 | 126.81767 | 22062 ft | 417 kts | 196° |
| 2026-05-08 03:12 | 36.17385 | 126.81449 | 22066 ft | 417 kts | 197° |
| 2026-05-08 03:12 | 36.14492 | 126.81132 | 22068 ft | 417 kts | 197° |
| 2026-05-08 03:12 | 36.11595 | 126.80816 | 22072 ft | 418 kts | 197° |
| 2026-05-08 03:12 | 36.08697 | 126.80500 | 22071 ft | 418 kts | 197° |
| 2026-05-08 03:13 | 36.05807 | 126.80186 | 22072 ft | 418 kts | 197° |
| 2026-05-08 03:13 | 36.02906 | 126.79870 | 22074 ft | 418 kts | 197° |
| 2026-05-08 03:13 | 36.00008 | 126.79555 | 22079 ft | 418 kts | 197° |
| 2026-05-08 03:13 | 35.97113 | 126.79240 | 22083 ft | 417 kts | 197° |
| 2026-05-08 03:14 | 35.94225 | 126.78927 | 22077 ft | 417 kts | 197° |
| 2026-05-08 03:14 | 35.91333 | 126.78613 | 22079 ft | 417 kts | 197° |
| 2026-05-08 03:14 | 35.88450 | 126.78300 | 22079 ft | 416 kts | 197° |
| 2026-05-08 03:14 | 35.85561 | 126.77988 | 22083 ft | 416 kts | 197° |
| 2026-05-08 03:15 | 35.82684 | 126.77678 | 22088 ft | 416 kts | 197° |
| 2026-05-08 03:15 | 35.79799 | 126.77368 | 22088 ft | 415 kts | 197° |
| 2026-05-08 03:15 | 35.76924 | 126.77058 | 22088 ft | 415 kts | 197° |
| 2026-05-08 03:15 | 35.74046 | 126.76748 | 22092 ft | 415 kts | 197° |
| 2026-05-08 03:16 | 35.71203 | 126.76442 | 22095 ft | 415 kts | 197° |
| 2026-05-08 03:16 | 35.68331 | 126.76134 | 22095 ft | 415 kts | 197° |
| 2026-05-08 03:16 | 35.65456 | 126.75825 | 22092 ft | 415 kts | 197° |
| 2026-05-08 03:16 | 35.62581 | 126.75516 | 22091 ft | 414 kts | 197° |
| 2026-05-08 03:17 | 35.59710 | 126.75208 | 22096 ft | 414 kts | 197° |
| 2026-05-08 03:17 | 35.56841 | 126.74901 | 22090 ft | 414 kts | 197° |
| 2026-05-08 03:17 | 35.53973 | 126.74594 | 22098 ft | 413 kts | 197° |
| 2026-05-08 03:17 | 35.51119 | 126.74289 | 22097 ft | 412 kts | 197° |
| 2026-05-08 03:18 | 35.48267 | 126.73984 | 22104 ft | 412 kts | 197° |
| 2026-05-08 03:18 | 35.45409 | 126.73681 | 22104 ft | 412 kts | 197° |
| 2026-05-08 03:18 | 35.42550 | 126.73378 | 22093 ft | 411 kts | 197° |
| 2026-05-08 03:18 | 35.39700 | 126.73076 | 22097 ft | 411 kts | 197° |
| 2026-05-08 03:19 | 35.36857 | 126.72775 | 22097 ft | 410 kts | 197° |
| 2026-05-08 03:19 | 35.34012 | 126.72474 | 22105 ft | 410 kts | 197° |
| 2026-05-08 03:19 | 35.31164 | 126.72172 | 22101 ft | 411 kts | 197° |
| 2026-05-08 03:19 | 35.28318 | 126.71871 | 22090 ft | 410 kts | 197° |
| 2026-05-08 03:20 | 35.25486 | 126.71572 | 22097 ft | 409 kts | 197° |
| 2026-05-08 03:20 | 35.22650 | 126.71273 | 22099 ft | 408 kts | 197° |
| 2026-05-08 03:20 | 35.19834 | 126.70975 | 22102 ft | 407 kts | 197° |
| 2026-05-08 03:20 | 35.17011 | 126.70677 | 22099 ft | 406 kts | 197° |
| 2026-05-08 03:21 | 35.14198 | 126.70380 | 22105 ft | 406 kts | 197° |
| 2026-05-08 03:21 | 35.11387 | 126.70083 | 22108 ft | 405 kts | 197° |
| 2026-05-08 03:21 | 35.08598 | 126.69792 | 22093 ft | 397 kts | 197° |
| 2026-05-08 03:21 | 35.05899 | 126.69520 | 22099 ft | 382 kts | 197° |
| 2026-05-08 03:22 | 35.03243 | 126.69242 | 22109 ft | 389 kts | 197° |
| 2026-05-08 03:22 | 35.00503 | 126.68935 | 22136 ft | 402 kts | 197° |
| 2026-05-08 03:22 | 34.97677 | 126.68617 | 22130 ft | 412 kts | 197° |
| 2026-05-08 03:22 | 34.94818 | 126.68309 | 22110 ft | 411 kts | 196° |
| 2026-05-08 03:23 | 34.91997 | 126.68021 | 22100 ft | 401 kts | 197° |
| 2026-05-08 03:23 | 34.89270 | 126.67755 | 22099 ft | 385 kts | 197° |
| 2026-05-08 03:23 | 34.86627 | 126.67491 | 22102 ft | 378 kts | 197° |
| 2026-05-08 03:23 | 34.84019 | 126.67217 | 22108 ft | 375 kts | 197° |
| 2026-05-08 03:24 | 34.81420 | 126.66936 | 22121 ft | 377 kts | 198° |
| 2026-05-08 03:24 | 34.78800 | 126.66651 | 21854 ft | 379 kts | 197° |
| 2026-05-08 03:24 | 34.76191 | 126.66374 | 21550 ft | 375 kts | 197° |
| 2026-05-08 03:24 | 34.73597 | 126.66101 | 21152 ft | 373 kts | 197° |
| 2026-05-08 03:25 | 34.71022 | 126.65832 | 20742 ft | 370 kts | 197° |
| 2026-05-08 03:25 | 34.68459 | 126.65563 | 20327 ft | 369 kts | 197° |
| 2026-05-08 03:25 | 34.65910 | 126.65295 | 19942 ft | 367 kts | 196° |
| 2026-05-08 03:25 | 34.63408 | 126.65032 | 19565 ft | 365 kts | 196° |
| 2026-05-08 03:26 | 34.60884 | 126.64767 | 19175 ft | 363 kts | 196° |
| 2026-05-08 03:26 | 34.58372 | 126.64503 | 18772 ft | 363 kts | 195° |
| 2026-05-08 03:26 | 34.55857 | 126.64239 | 18380 ft | 362 kts | 195° |
| 2026-05-08 03:26 | 34.53347 | 126.63975 | 17929 ft | 362 kts | 195° |
| 2026-05-08 03:27 | 34.50839 | 126.63713 | 17533 ft | 361 kts | 195° |
| 2026-05-08 03:27 | 34.48346 | 126.63453 | 17129 ft | 358 kts | 195° |
| 2026-05-08 03:27 | 34.45871 | 126.63195 | 16754 ft | 356 kts | 195° |
| 2026-05-08 03:27 | 34.43413 | 126.62938 | 16347 ft | 353 kts | 194° |
| 2026-05-08 03:28 | 34.40982 | 126.62684 | 16000 ft | 349 kts | 194° |
| 2026-05-08 03:28 | 34.38565 | 126.62425 | 15636 ft | 348 kts | 194° |
| 2026-05-08 03:28 | 34.36163 | 126.62165 | 15272 ft | 346 kts | 193° |
| 2026-05-08 03:28 | 34.33770 | 126.61905 | 14913 ft | 345 kts | 193° |
| 2026-05-08 03:29 | 34.31387 | 126.61646 | 14555 ft | 343 kts | 193° |
| 2026-05-08 03:29 | 34.29015 | 126.61390 | 14199 ft | 342 kts | 192° |
| 2026-05-08 03:29 | 34.26649 | 126.61135 | 13832 ft | 340 kts | 192° |
| 2026-05-08 03:29 | 34.24301 | 126.60885 | 13495 ft | 338 kts | 192° |
| 2026-05-08 03:30 | 34.19636 | 126.60402 | 12665 ft | 338 kts | 192° |
| 2026-05-08 03:30 | 34.14928 | 126.59915 | 11844 ft | 339 kts | 191° |
| 2026-05-08 03:31 | 34.10245 | 126.59433 | 11099 ft | 337 kts | 191° |
| 2026-05-08 03:31 | 34.05607 | 126.58955 | 10517 ft | 329 kts | 191° |
| 2026-05-08 03:32 | 34.03343 | 126.58804 | 10342 ft | 326 kts | 180° |
| 2026-05-08 03:32 | 34.01164 | 126.59534 | 10195 ft | 327 kts | 154° |
| 2026-05-08 03:32 | 33.99424 | 126.61241 | 10052 ft | 322 kts | 127° |
| 2026-05-08 03:32 | 33.98380 | 126.63560 | 9837 ft | 312 kts | 103° |
| 2026-05-08 03:33 | 33.98009 | 126.66102 | 9557 ft | 305 kts | 91° |
| 2026-05-08 03:33 | 33.97795 | 126.68638 | 9266 ft | 303 kts | 90° |
| 2026-05-08 03:33 | 33.97583 | 126.71158 | 8981 ft | 302 kts | 90° |
| 2026-05-08 03:33 | 33.97362 | 126.73632 | 8703 ft | 300 kts | 91° |
| 2026-05-08 03:34 | 33.97124 | 126.76154 | 8425 ft | 298 kts | 93° |
| 2026-05-08 03:34 | 33.96455 | 126.78503 | 8122 ft | 307 kts | 120° |
| 2026-05-08 03:34 | 33.94946 | 126.80346 | 7845 ft | 308 kts | 149° |
| 2026-05-08 03:34 | 33.92949 | 126.81149 | 7585 ft | 301 kts | 178° |
| 2026-05-08 03:35 | 33.90888 | 126.81007 | 7352 ft | 296 kts | 193° |
| 2026-05-08 03:35 | 33.88876 | 126.80630 | 7090 ft | 297 kts | 194° |
| 2026-05-08 03:35 | 33.86834 | 126.80216 | 6820 ft | 298 kts | 194° |
| 2026-05-08 03:35 | 33.84764 | 126.79800 | 6550 ft | 298 kts | 193° |
| 2026-05-08 03:36 | 33.82735 | 126.79402 | 6271 ft | 299 kts | 193° |
| 2026-05-08 03:36 | 33.80685 | 126.79008 | 5995 ft | 298 kts | 192° |
| 2026-05-08 03:36 | 33.78640 | 126.78621 | 5715 ft | 297 kts | 192° |
| 2026-05-08 03:36 | 33.76595 | 126.78238 | 5449 ft | 296 kts | 192° |
| 2026-05-08 03:37 | 33.74566 | 126.77860 | 5182 ft | 294 kts | 191° |
| 2026-05-08 03:37 | 33.72610 | 126.77496 | 4933 ft | 292 kts | 191° |
| 2026-05-08 03:37 | 33.70625 | 126.77129 | 4722 ft | 281 kts | 191° |
| 2026-05-08 03:37 | 33.68759 | 126.76786 | 4616 ft | 262 kts | 191° |
| 2026-05-08 03:38 | 33.66973 | 126.76456 | 4239 ft | 257 kts | 192° |
| 2026-05-08 03:38 | 33.65327 | 126.75854 | 3941 ft | 238 kts | 219° |
| 2026-05-08 03:38 | 33.64174 | 126.74570 | 3759 ft | 218 kts | 242° |
| 2026-05-08 03:38 | 33.63372 | 126.73074 | 3588 ft | 210 kts | 248° |
| 2026-05-08 03:39 | 33.62639 | 126.71563 | 3411 ft | 210 kts | 248° |
| 2026-05-08 03:39 | 33.61896 | 126.70073 | 3290 ft | 212 kts | 246° |
| 2026-05-08 03:39 | 33.61125 | 126.68558 | 3174 ft | 207 kts | 245° |
| 2026-05-08 03:39 | 33.60390 | 126.67133 | 3214 ft | 197 kts | 246° |
| 2026-05-08 03:40 | 33.59674 | 126.65736 | 3170 ft | 197 kts | 246° |
| 2026-05-08 03:40 | 33.58955 | 126.64331 | 2913 ft | 197 kts | 246° |
| 2026-05-08 03:40 | 33.58246 | 126.62952 | 2661 ft | 192 kts | 246° |
| 2026-05-08 03:40 | 33.57552 | 126.61600 | 2414 ft | 188 kts | 246° |
| 2026-05-08 03:41 | 33.56884 | 126.60299 | 2160 ft | 177 kts | 246° |
| 2026-05-08 03:41 | 33.56263 | 126.59090 | 1945 ft | 163 kts | 246° |
| 2026-05-08 03:41 | 33.55671 | 126.57927 | 1727 ft | 164 kts | 247° |
| 2026-05-08 03:41 | 33.55087 | 126.56793 | 1475 ft | 156 kts | 245° |
| 2026-05-08 03:42 | 33.54539 | 126.55726 | 1272 ft | 149 kts | 244° |
| 2026-05-08 03:42 | 33.54001 | 126.54669 | 1057 ft | 150 kts | 241° |
| 2026-05-08 03:42 | 33.53451 | 126.53601 | 839 ft | 151 kts | 241° |
| 2026-05-08 03:42 | 33.52978 | 126.52675 | 694 ft | 149 kts | 241° |
| 2026-05-08 03:43 | 33.52724 | 126.52182 | 572 ft | 151 kts | 241° |
| 2026-05-08 03:43 | 33.52166 | 126.51113 | 382 ft | 151 kts | 242° |
| 2026-05-08 03:43 | 33.51893 | 126.50557 | 279 ft | 148 kts | 253° |
| 2026-05-08 03:44 | 33.51764 | 126.50263 | 216 ft | 147 kts | 249° |
| 2026-05-08 03:44 | 33.51218 | 126.49251 | 94 ft | 138 kts | 243° |
| 2026-05-08 03:44 | 33.50951 | 126.48705 | 90 ft | 109 kts | 244° |
| 2026-05-08 03:45 | 33.50680 | 126.48186 | 92 ft | 82 kts | 238° |
| 2026-05-08 03:45 | 33.50495 | 126.47822 | 94 ft | 30 kts | 238° |
| 2026-05-08 03:45 | 33.50401 | 126.47742 | 93 ft | 11 kts | 168° |
| 2026-05-08 03:45 | 33.50353 | 126.47772 | 93 ft | 7 kts | 151° |
| 2026-05-08 03:46 | 33.50319 | 126.47805 | 92 ft | 6 kts | 115° |
| 2026-05-08 03:46 | 33.50320 | 126.47853 | 92 ft | 6 kts | 79° |
| 2026-05-08 03:46 | 33.50336 | 126.47896 | 94 ft | 6 kts | 60° |
| 2026-05-08 03:46 | 33.50357 | 126.47936 | 93 ft | 6 kts | 58° |
| 2026-05-08 03:47 | 33.50377 | 126.47976 | 92 ft | 6 kts | 58° |
| 2026-05-08 03:47 | 33.50397 | 126.48015 | 92 ft | 5 kts | 58° |
| 2026-05-08 03:47 | 33.50418 | 126.48056 | 93 ft | 7 kts | 58° |
| 2026-05-08 03:47 | 33.50454 | 126.48126 | 92 ft | 13 kts | 58° |
| 2026-05-08 03:48 | 33.50510 | 126.48235 | 92 ft | 18 kts | 58° |
| 2026-05-08 03:48 | 33.50546 | 126.48302 | 90 ft | 18 kts | 50° |
| 2026-05-08 03:48 | 33.50608 | 126.48427 | 91 ft | 20 kts | 59° |
| 2026-05-08 03:48 | 33.50690 | 126.48581 | 90 ft | 24 kts | 57° |
| 2026-05-08 03:49 | 33.50779 | 126.48747 | 88 ft | 24 kts | 57° |
| 2026-05-08 03:49 | 33.50853 | 126.48903 | 91 ft | 23 kts | 59° |
| 2026-05-08 03:49 | 33.50935 | 126.49060 | 87 ft | 22 kts | 57° |
| 2026-05-08 03:50 | 33.51015 | 126.49216 | 88 ft | 21 kts | 58° |
| 2026-05-08 03:50 | 33.51050 | 126.49310 | 88 ft | 7 kts | 93° |
| 2026-05-08 03:50 | 33.51023 | 126.49350 | 90 ft | 6 kts | 150° |
| 2026-05-08 03:50 | 33.50984 | 126.49377 | 92 ft | 7 kts | 150° |
| 2026-05-08 03:51 | 33.50940 | 126.49412 | 91 ft | 6 kts | 146° |
| 2026-05-08 03:51 | 33.50902 | 126.49434 | 92 ft | 6 kts | 166° |
| 2026-05-08 03:51 | 33.50860 | 126.49437 | 95 ft | 6 kts | 176° |
| 2026-05-08 03:51 | 33.50826 | 126.49438 | 93 ft | 2 kts | 182° |
| 2026-05-08 03:52 | 33.50820 | 126.49437 | 94 ft | 0 kts | 182° |
| 2026-05-08 03:52 | 33.50820 | 126.49438 | 93 ft | 0 kts | 180° |
| 2026-05-08 03:53 | 33.50814 | 126.49438 | 93 ft | 1 kts | 179° |
| 2026-05-08 03:53 | 33.50807 | 126.49438 | 94 ft | 1 kts | 178° |
| 2026-05-08 03:53 | 33.50804 | 126.49438 | 95 ft | 0 kts | 178° |